Time;durP1;ratioP1;P1;durP2;ratioP2;P2;SDS_P1;SDS_P2;PMS_P1;PMS_P2;Temp;Humidity;BMP_temperature;BMP_pressure;BME280_temperature;BME280_humidity;BME280_pressure;Samples;Min_cycle;Max_cycle;Signal;HPM_P1;HPM_P2
2023/07/01 00:00:39;;;;;;;8.32;4.95;;;;;;;45.91;nan;100582.72;5111485;28;20051;-50
2023/07/01 00:03:07;;;;;;;13.02;6.00;;;;;;;45.17;nan;100582.75;5108280;28;20179;-50
2023/07/01 00:05:34;;;;;;;7.72;5.85;;;;;;;44.87;nan;100588.53;5110971;28;20052;-49
2023/07/01 00:08:00;;;;;;;6.90;5.07;;;;;;;45.22;nan;100582.63;5107832;28;20043;-50
2023/07/01 00:10:27;;;;;;;9.15;6.43;;;;;;;45.32;nan;100581.63;5111448;28;20051;-52
2023/07/01 00:12:53;;;;;;;11.00;6.38;;;;;;;44.91;nan;100577.63;5110120;28;20062;-50
2023/07/01 00:15:20;;;;;;;7.97;6.65;;;;;;;44.83;nan;100581.09;5104301;28;20048;-50
2023/07/01 00:17:47;;;;;;;8.57;5.63;;;;;;;45.27;nan;100585.34;5107426;28;20055;-50
2023/07/01 00:20:14;;;;;;;10.20;6.07;;;;;;;45.19;nan;100584.09;5098866;28;20048;-50
2023/07/01 00:22:40;;;;;;;8.45;5.40;;;;;;;45.07;nan;100581.81;5105019;28;20544;-50
2023/07/01 00:25:08;;;;;;;8.23;5.38;;;;;;;45.15;nan;100576.66;5102757;28;20062;-50
2023/07/01 00:27:34;;;;;;;9.02;6.07;;;;;;;44.47;nan;100571.34;5103129;28;20496;-50
2023/07/01 00:30:01;;;;;;;7.50;5.80;;;;;;;44.72;nan;100581.25;5109895;28;20455;-50
2023/07/01 00:32:27;;;;;;;7.95;5.47;;;;;;;45.18;nan;100573.25;5111632;28;20051;-51
2023/07/01 00:34:54;;;;;;;7.90;5.22;;;;;;;45.18;nan;100573.25;5110833;28;20055;-49
2023/07/01 00:37:20;;;;;;;9.93;6.28;;;;;;;44.58;nan;100566.44;5101583;28;20047;-50
2023/07/01 00:39:47;;;;;;;9.40;6.82;;;;;;;45.22;nan;100560.34;5100397;28;20093;-50
2023/07/01 00:42:14;;;;;;;8.25;6.03;;;;;;;44.23;nan;100557.50;5110286;28;20043;-51
2023/07/01 00:44:41;;;;;;;8.00;6.68;;;;;;;45.14;nan;100566.63;5108359;28;20047;-50
2023/07/01 00:47:08;;;;;;;8.68;6.45;;;;;;;45.19;nan;100555.41;5103940;28;20056;-50
2023/07/01 00:49:34;;;;;;;10.93;6.70;;;;;;;44.81;nan;100561.06;5105127;28;20367;-50
2023/07/01 00:52:02;;;;;;;8.30;5.85;;;;;;;45.02;nan;100556.78;5113440;28;20047;-50
2023/07/01 00:54:29;;;;;;;11.90;6.75;;;;;;;44.99;nan;100557.44;5101031;28;20451;-50
2023/07/01 00:56:55;;;;;;;8.13;6.05;;;;;;;45.00;nan;100553.50;5109963;28;20089;-51
2023/07/01 00:59:22;;;;;;;13.68;7.63;;;;;;;45.22;nan;100549.19;5101868;28;20055;-50
2023/07/01 01:01:53;;;;;;;11.40;7.60;;;;;;;45.29;nan;100543.22;5097780;28;20047;-49
2023/07/01 01:04:29;;;;;;;;;;;;;;;45.18;nan;100537.81;5102566;28;20071;-50
2023/07/01 01:07:27;;;;;;;8.93;6.05;;;;;;;45.29;nan;100538.47;5101313;28;20311;-50
2023/07/01 01:10:03;;;;;;;10.18;6.70;;;;;;;45.35;nan;100531.66;5093193;28;20048;-50
2023/07/01 01:12:30;;;;;;;10.38;6.32;;;;;;;44.59;nan;100534.66;5112721;28;20047;-49
2023/07/01 01:14:58;;;;;;;9.45;6.18;;;;;;;44.80;nan;100525.97;5107206;28;20501;-50
2023/07/01 01:17:28;;;;;;;9.35;6.63;;;;;;;45.03;nan;100526.97;5100260;28;20056;-50
2023/07/01 01:19:59;;;;;;;8.93;6.22;;;;;;;44.89;nan;100526.91;5107980;28;20056;-50
2023/07/01 01:22:33;;;;;;;6.60;5.35;;;;;;;45.27;nan;100518.44;5102690;28;20056;-50
2023/07/01 01:25:17;;;;;;;10.63;6.05;;;;;;;45.13;nan;100517.59;5099891;28;20738;-50
2023/07/01 01:27:44;;;;;;;12.70;6.22;;;;;;;45.16;nan;100516.97;5114163;28;20163;-49
2023/07/01 01:30:10;;;;;;;10.10;6.90;;;;;;;45.07;nan;100506.53;5107726;28;20052;-49
2023/07/01 01:32:37;;;;;;;11.13;5.72;;;;;;;45.31;nan;100508.28;5095236;28;20044;-50
2023/07/01 01:35:06;;;;;;;10.88;7.90;;;;;;;44.44;nan;100507.88;5109739;27;20405;-50
2023/07/01 01:37:52;;;;;;;12.35;7.82;;;;;;;44.33;nan;100512.75;5107423;28;20048;-49
2023/07/01 01:40:24;;;;;;;11.27;8.13;;;;;;;44.28;nan;100515.63;5100462;28;20079;-50
2023/07/01 01:42:59;;;;;;;11.60;7.43;;;;;;;44.21;nan;100512.41;5099183;28;20537;-50
2023/07/01 01:45:26;;;;;;;9.93;7.28;;;;;;;45.03;nan;100508.28;5109617;28;20136;-50
2023/07/01 01:47:54;;;;;;;10.60;7.15;;;;;;;45.10;nan;100513.44;5099041;28;20052;-50
2023/07/01 01:50:21;;;;;;;13.13;7.18;;;;;;;45.09;nan;100506.22;5107752;28;20127;-50
2023/07/01 01:52:51;;;;;;;11.80;7.55;;;;;;;45.11;nan;100508.72;5111395;27;20059;-50
2023/07/01 01:55:19;;;;;;;10.27;6.65;;;;;;;44.90;nan;100500.69;5122580;27;20051;-50
2023/07/01 01:57:46;;;;;;;11.95;7.47;;;;;;;44.97;nan;100500.31;5108219;28;20051;-50
2023/07/01 02:00:13;;;;;;;9.63;6.68;;;;;;;45.04;nan;100492.34;5113205;28;20066;-50
2023/07/01 02:02:40;;;;;;;12.60;6.65;;;;;;;44.95;nan;100489.44;5110255;28;20047;-50
2023/07/01 02:05:07;;;;;;;10.95;6.00;;;;;;;44.91;nan;100494.00;5110056;27;20051;-50
2023/07/01 02:07:34;;;;;;;9.10;6.40;;;;;;;44.65;nan;100486.09;5114037;28;20056;-49
2023/07/01 02:10:02;;;;;;;9.65;6.47;;;;;;;44.26;nan;100490.06;5109308;28;20069;-49
2023/07/01 02:12:29;;;;;;;11.45;6.82;;;;;;;44.44;nan;100495.91;5114152;28;20044;-49
2023/07/01 02:14:55;;;;;;;9.35;7.13;;;;;;;43.70;nan;100488.03;5107425;28;20048;-49
2023/07/01 02:17:22;;;;;;;10.40;6.95;;;;;;;43.79;nan;100486.28;5113428;28;20470;-49
2023/07/01 02:19:49;;;;;;;17.65;7.93;;;;;;;44.34;nan;100492.16;5110259;28;20062;-49
2023/07/01 02:22:15;;;;;;;11.05;7.63;;;;;;;44.12;nan;100478.81;5103450;28;20043;-49
2023/07/01 02:24:42;;;;;;;8.35;6.60;;;;;;;44.44;nan;100484.78;5101432;28;20036;-49
2023/07/01 02:27:08;;;;;;;9.18;6.88;;;;;;;44.40;nan;100489.28;5109404;28;20047;-49
2023/07/01 02:29:35;;;;;;;9.80;6.70;;;;;;;44.32;nan;100477.72;5112573;27;20055;-49
2023/07/01 02:32:02;;;;;;;11.40;8.27;;;;;;;44.21;nan;100476.22;5104359;28;20475;-49
2023/07/01 02:34:30;;;;;;;11.82;7.72;;;;;;;43.94;nan;100472.13;5112273;28;20050;-50
2023/07/01 02:36:57;;;;;;;12.38;7.85;;;;;;;44.39;nan;100465.34;5112900;28;20448;-49
2023/07/01 02:39:23;;;;;;;12.77;7.60;;;;;;;44.17;nan;100464.03;5098429;28;20055;-50
2023/07/01 02:41:50;;;;;;;11.75;7.28;;;;;;;44.14;nan;100464.59;5112452;28;20055;-49
2023/07/01 02:44:17;;;;;;;14.25;7.88;;;;;;;43.89;nan;100452.72;5108907;28;20043;-49
2023/07/01 02:46:43;;;;;;;11.05;8.13;;;;;;;43.49;nan;100454.94;5112812;28;20063;-49
2023/07/01 02:49:10;;;;;;;13.93;9.10;;;;;;;43.60;nan;100450.91;5109885;28;20447;-49
2023/07/01 02:51:37;;;;;;;11.02;7.78;;;;;;;43.11;nan;100462.31;5093375;28;20089;-49
2023/07/01 02:54:03;;;;;;;11.05;7.68;;;;;;;43.37;nan;100447.03;5095564;28;20111;-49
2023/07/01 02:56:30;;;;;;;13.18;8.02;;;;;;;43.85;nan;100448.91;5096221;28;20052;-49
2023/07/01 02:58:56;;;;;;;16.00;8.48;;;;;;;43.47;nan;100454.41;5097312;28;20051;-50
2023/07/01 03:01:23;;;;;;;10.10;7.82;;;;;;;43.68;nan;100451.34;5107967;28;20039;-48
2023/07/01 03:03:49;;;;;;;13.20;8.90;;;;;;;43.48;nan;100447.72;5111496;28;20047;-49
2023/07/01 03:06:17;;;;;;;11.13;8.30;;;;;;;42.86;nan;100442.81;5108114;28;20067;-49
2023/07/01 03:08:43;;;;;;;12.95;8.30;;;;;;;43.99;nan;100440.59;5110830;28;20060;-49
2023/07/01 03:11:10;;;;;;;11.02;7.47;;;;;;;43.35;nan;100442.84;5111193;28;20059;-49
2023/07/01 03:13:37;;;;;;;14.90;8.52;;;;;;;40.63;nan;100448.97;5103687;28;20051;-49
2023/07/01 03:16:06;;;;;;;14.82;8.88;;;;;;;41.41;nan;100438.56;5111386;28;20096;-49
2023/07/01 03:18:33;;;;;;;14.82;9.00;;;;;;;41.73;nan;100443.69;5105031;28;20048;-49
2023/07/01 03:21:00;;;;;;;10.00;8.50;;;;;;;40.99;nan;100437.84;5107404;28;20055;-49
2023/07/01 03:23:27;;;;;;;18.88;10.18;;;;;;;41.53;nan;100443.78;5109151;28;20056;-49
2023/07/01 03:25:54;;;;;;;12.40;8.75;;;;;;;42.21;nan;100436.75;5109026;28;20047;-49
2023/07/01 03:28:21;;;;;;;12.60;8.55;;;;;;;38.93;nan;100445.63;5108929;28;20051;-49
2023/07/01 03:30:48;;;;;;;12.68;8.95;;;;;;;38.52;nan;100447.25;5099740;28;20055;-49
2023/07/01 03:33:17;;;;;;;10.43;8.40;;;;;;;39.57;nan;100446.56;5099790;28;20044;-49
2023/07/01 03:35:44;;;;;;;14.65;8.32;;;;;;;39.14;nan;100440.28;5104708;28;20048;-49
2023/07/01 03:38:13;;;;;;;10.27;7.85;;;;;;;39.72;nan;100445.78;5112157;28;20591;-49
2023/07/01 03:40:40;;;;;;;10.48;8.50;;;;;;;39.95;nan;100444.47;5111440;28;20052;-49
2023/07/01 03:43:06;;;;;;;13.35;8.85;;;;;;;39.80;nan;100436.13;5095164;28;20044;-49
2023/07/01 03:45:33;;;;;;;14.38;9.05;;;;;;;38.78;nan;100442.78;5107662;28;20047;-49
2023/07/01 03:48:00;;;;;;;11.43;8.63;;;;;;;38.72;nan;100443.84;5097522;28;20047;-50
2023/07/01 03:50:26;;;;;;;17.33;8.23;;;;;;;39.64;nan;100444.38;5108570;28;20062;-50
2023/07/01 03:52:53;;;;;;;11.18;8.18;;;;;;;42.14;nan;100435.13;5108056;28;20051;-49
2023/07/01 03:55:19;;;;;;;11.85;8.75;;;;;;;41.68;nan;100442.88;5101967;28;20460;-49
2023/07/01 03:57:46;;;;;;;14.00;8.20;;;;;;;40.76;nan;100446.72;5111834;28;20055;-49
2023/07/01 04:00:19;;;;;;;13.60;8.13;;;;;;;41.15;nan;100437.78;5107303;28;20051;-50
2023/07/01 04:02:46;;;;;;;11.07;7.13;;;;;;;42.16;nan;100438.44;5109971;28;20047;-49
2023/07/01 04:05:13;;;;;;;11.82;8.00;;;;;;;39.25;nan;100441.13;5103573;28;20048;-50
2023/07/01 04:07:41;;;;;;;19.90;8.68;;;;;;;38.43;nan;100435.84;5112775;28;20055;-49
2023/07/01 04:10:09;;;;;;;15.77;8.85;;;;;;;40.17;nan;100435.94;5114892;28;20056;-49
2023/07/01 04:12:37;;;;;;;8.90;7.80;;;;;;;37.66;nan;100435.03;5109467;28;20040;-49
2023/07/01 04:15:13;;;;;;;11.65;7.70;;;;;;;39.23;nan;100438.63;5114895;28;20055;-49
2023/07/01 04:17:42;;;;;;;13.15;7.43;;;;;;;37.92;nan;100440.88;5112146;28;20044;-49
2023/07/01 04:20:10;;;;;;;14.85;9.10;;;;;;;36.23;nan;100437.34;5100912;28;20052;-49
2023/07/01 04:22:37;;;;;;;13.88;8.10;;;;;;;38.36;nan;100435.25;5115450;27;20060;-50
2023/07/01 04:25:04;;;;;;;17.27;7.70;;;;;;;37.77;nan;100430.50;5108320;28;20043;-49
2023/07/01 04:27:32;;;;;;;9.80;7.65;;;;;;;36.91;nan;100426.31;5115501;28;20340;-49
2023/07/01 04:29:58;;;;;;;11.93;7.72;;;;;;;38.68;nan;100426.13;5105847;28;20106;-49
2023/07/01 04:32:25;;;;;;;9.10;7.32;;;;;;;38.27;nan;100425.78;5094822;28;20063;-49
2023/07/01 04:34:53;;;;;;;15.15;7.28;;;;;;;35.95;nan;100417.00;5101474;28;20052;-49
2023/07/01 04:37:20;;;;;;;12.93;8.10;;;;;;;37.14;nan;100418.94;5113841;28;20056;-50
2023/07/01 04:39:47;;;;;;;13.52;7.90;;;;;;;36.31;nan;100423.16;5115318;28;20108;-50
2023/07/01 04:42:13;;;;;;;9.68;7.50;;;;;;;39.10;nan;100414.25;5100541;28;20073;-50
2023/07/01 04:44:41;;;;;;;8.70;7.80;;;;;;;37.34;nan;100405.47;5103068;28;20054;-50
2023/07/01 04:47:07;;;;;;;8.65;7.20;;;;;;;37.90;nan;100404.47;5101765;27;20067;-50
2023/07/01 04:49:34;;;;;;;19.20;8.27;;;;;;;38.39;nan;100401.59;5112169;28;20360;-51
2023/07/01 04:52:00;;;;;;;16.73;8.45;;;;;;;38.10;nan;100399.13;5119898;27;20052;-50
2023/07/01 04:54:27;;;;;;;12.35;7.60;;;;;;;37.95;nan;100401.75;5103064;27;20039;-51
2023/07/01 04:56:53;;;;;;;10.75;6.95;;;;;;;36.80;nan;100407.97;5110863;28;20056;-50
2023/07/01 04:59:20;;;;;;;10.23;6.90;;;;;;;37.07;nan;100403.41;5111675;28;20062;-49
2023/07/01 05:01:46;;;;;;;11.25;7.15;;;;;;;37.71;nan;100407.56;5114870;28;20211;-49
2023/07/01 05:04:13;;;;;;;8.90;6.82;;;;;;;35.89;nan;100404.25;5106921;28;20051;-49
2023/07/01 05:06:40;;;;;;;10.55;7.53;;;;;;;36.87;nan;100408.66;5109526;28;20404;-49
2023/07/01 05:09:08;;;;;;;11.30;6.65;;;;;;;37.15;nan;100409.59;5112351;28;20066;-49
2023/07/01 05:11:35;;;;;;;23.15;8.60;;;;;;;38.83;nan;100401.38;5103485;28;20052;-49
2023/07/01 05:14:01;;;;;;;12.65;6.22;;;;;;;39.56;nan;100400.69;5093823;28;20048;-50
2023/07/01 05:16:28;;;;;;;15.63;7.07;;;;;;;39.68;nan;100402.34;5103474;28;20050;-50
2023/07/01 05:18:56;;;;;;;12.10;6.90;;;;;;;40.55;nan;100402.47;5108789;28;20479;-49
2023/07/01 05:21:22;;;;;;;14.13;6.63;;;;;;;40.09;nan;100416.28;5108334;28;20052;-49
2023/07/01 05:23:49;;;;;;;14.43;7.53;;;;;;;39.24;nan;100411.84;5114264;27;20455;-49
2023/07/01 05:26:16;;;;;;;12.73;6.75;;;;;;;39.86;nan;100401.84;5113084;28;20055;-49
2023/07/01 05:28:42;;;;;;;8.80;5.93;;;;;;;36.70;nan;100403.97;5109353;28;20486;-49
2023/07/01 05:31:09;;;;;;;11.23;6.13;;;;;;;40.07;nan;100410.19;5113409;28;20112;-49
2023/07/01 05:33:35;;;;;;;9.18;5.90;;;;;;;39.21;nan;100410.44;5109734;28;20044;-49
2023/07/01 05:36:02;;;;;;;15.15;6.05;;;;;;;38.80;nan;100407.44;5113576;28;20059;-49
2023/07/01 05:38:29;;;;;;;11.40;6.78;;;;;;;39.12;nan;100409.28;5111086;28;20048;-49
2023/07/01 05:40:55;;;;;;;8.68;6.00;;;;;;;38.83;nan;100406.91;5112272;28;20415;-49
2023/07/01 05:43:22;;;;;;;8.50;6.63;;;;;;;41.07;nan;100409.56;5113402;28;20051;-49
2023/07/01 05:45:48;;;;;;;9.80;6.60;;;;;;;40.48;nan;100413.00;5099274;28;20121;-49
2023/07/01 05:48:15;;;;;;;7.78;6.10;;;;;;;41.05;nan;100403.47;5105653;28;20059;-49
2023/07/01 05:50:41;;;;;;;9.77;6.85;;;;;;;39.79;nan;100402.09;5105831;28;20051;-49
2023/07/01 05:53:09;;;;;;;8.35;5.68;;;;;;;41.22;nan;100399.53;5109926;28;20447;-49
2023/07/01 05:55:36;;;;;;;8.93;6.22;;;;;;;43.14;nan;100404.19;5109488;28;23312;-49
2023/07/01 05:58:03;;;;;;;10.25;5.68;;;;;;;40.21;nan;100403.00;5095576;28;20048;-49
2023/07/01 06:00:29;;;;;;;8.40;5.80;;;;;;;39.53;nan;100417.81;5104624;28;20577;-49
2023/07/01 06:02:56;;;;;;;7.45;5.85;;;;;;;41.15;nan;100412.84;5099004;27;20070;-49
2023/07/01 06:05:22;;;;;;;6.85;5.80;;;;;;;39.83;nan;100407.91;5110819;28;20052;-49
2023/07/01 06:07:49;;;;;;;6.28;5.20;;;;;;;38.10;nan;100393.59;5104239;28;20047;-49
2023/07/01 06:10:16;;;;;;;8.68;5.35;;;;;;;41.78;nan;100396.50;5105992;28;20051;-49
2023/07/01 06:12:43;;;;;;;8.32;5.35;;;;;;;43.12;nan;100400.88;5110608;28;20051;-49
2023/07/01 06:15:10;;;;;;;10.15;5.55;;;;;;;40.55;nan;100402.47;5109498;28;20058;-49
2023/07/01 06:17:36;;;;;;;10.38;5.38;;;;;;;40.20;nan;100390.28;5112537;28;20427;-49
2023/07/01 06:20:04;;;;;;;8.82;5.05;;;;;;;39.44;nan;100400.84;5102835;28;20063;-49
2023/07/01 06:22:31;;;;;;;6.50;4.47;;;;;;;40.00;nan;100397.47;5093205;28;20059;-49
2023/07/01 06:24:58;;;;;;;6.25;4.75;;;;;;;39.92;nan;100395.22;5109097;28;20059;-49
2023/07/01 06:27:24;;;;;;;6.60;4.22;;;;;;;40.59;nan;100392.47;5092144;28;20056;-49
2023/07/01 06:29:51;;;;;;;4.45;3.88;;;;;;;42.73;nan;100387.97;5112262;28;20055;-49
2023/07/01 06:32:18;;;;;;;7.47;3.72;;;;;;;42.86;nan;100390.03;5109111;28;20051;-49
2023/07/01 06:34:44;;;;;;;6.03;3.72;;;;;;;43.72;nan;100391.19;5112238;28;20051;-49
2023/07/01 06:37:11;;;;;;;8.68;3.85;;;;;;;42.56;nan;100385.66;5102650;28;20055;-49
2023/07/01 06:39:37;;;;;;;8.27;3.70;;;;;;;43.45;nan;100376.84;5096990;28;20052;-49
2023/07/01 06:42:05;;;;;;;6.22;3.15;;;;;;;41.46;nan;100378.38;5109468;28;20069;-49
2023/07/01 06:44:32;;;;;;;11.23;4.32;;;;;;;41.64;nan;100379.66;5109376;28;20476;-49
2023/07/01 06:46:58;;;;;;;9.50;3.20;;;;;;;41.56;nan;100376.66;5112109;28;20119;-49
2023/07/01 06:49:25;;;;;;;5.45;2.78;;;;;;;39.77;nan;100387.69;5108365;28;20112;-49
2023/07/01 06:51:51;;;;;;;4.50;2.83;;;;;;;41.06;nan;100374.63;5111276;28;20073;-49
2023/07/01 06:54:19;;;;;;;11.07;2.88;;;;;;;40.92;nan;100379.16;5102180;28;20415;-49
2023/07/01 06:56:46;;;;;;;4.53;2.92;;;;;;;40.91;nan;100377.47;5099896;28;20587;-49
2023/07/01 06:59:12;;;;;;;4.72;2.90;;;;;;;43.21;nan;100371.28;5091124;28;20071;-49
2023/07/01 07:01:39;;;;;;;7.43;2.65;;;;;;;42.16;nan;100357.97;5106234;28;20044;-49
2023/07/01 07:04:06;;;;;;;5.72;2.67;;;;;;;41.35;nan;100368.44;5097096;28;20052;-49
2023/07/01 07:06:33;;;;;;;5.90;2.45;;;;;;;43.34;nan;100357.75;5095128;28;20107;-50
2023/07/01 07:08:59;;;;;;;4.20;2.15;;;;;;;39.64;nan;100355.91;5100522;28;20098;-49
2023/07/01 07:11:26;;;;;;;5.00;1.95;;;;;;;41.80;nan;100349.91;5098479;28;20052;-51
2023/07/01 07:13:53;;;;;;;6.45;1.70;;;;;;;41.36;nan;100356.25;5113439;27;20418;-49
2023/07/01 07:16:19;;;;;;;2.95;1.77;;;;;;;43.05;nan;100361.50;5111399;28;20047;-49
2023/07/01 07:18:47;;;;;;;5.78;2.47;;;;;;;40.63;nan;100349.28;5107983;28;20501;-53
2023/07/01 07:21:14;;;;;;;3.55;1.58;;;;;;;40.98;nan;100344.75;5111187;28;20047;-49
2023/07/01 07:23:41;;;;;;;4.68;1.70;;;;;;;41.94;nan;100349.22;5107776;28;20059;-49
2023/07/01 07:26:07;;;;;;;7.15;2.28;;;;;;;42.53;nan;100339.84;5127830;28;20063;-49
2023/07/01 07:28:38;;;;;;;3.08;1.48;;;;;;;41.09;nan;100332.50;5097914;27;20623;-49
2023/07/01 07:31:04;;;;;;;5.22;2.05;;;;;;;39.85;nan;100341.25;5110685;28;20078;-49
2023/07/01 07:33:31;;;;;;;6.47;2.20;;;;;;;38.81;nan;100353.88;5111179;28;20107;-49
2023/07/01 07:35:58;;;;;;;5.95;1.70;;;;;;;42.79;nan;100339.56;5100682;28;20055;-49
2023/07/01 07:38:24;;;;;;;4.55;2.08;;;;;;;42.36;nan;100336.69;5111250;28;20052;-49
2023/07/01 07:40:51;;;;;;;3.97;1.63;;;;;;;43.91;nan;100332.75;5106669;28;20132;-49
2023/07/01 07:43:18;;;;;;;5.20;1.75;;;;;;;44.43;nan;100335.47;5095081;28;20040;-49
2023/07/01 07:45:44;;;;;;;5.35;1.90;;;;;;;44.67;nan;100338.94;5109039;28;20043;-48
2023/07/01 07:48:11;;;;;;;8.73;1.75;;;;;;;44.65;nan;100335.63;5112757;28;20074;-49
2023/07/01 07:50:37;;;;;;;6.85;2.13;;;;;;;42.92;nan;100338.81;5115517;28;20051;-48
2023/07/01 07:53:04;;;;;;;4.07;1.67;;;;;;;41.99;nan;100321.44;5111466;28;20048;-48
2023/07/01 07:55:33;;;;;;;4.68;1.70;;;;;;;43.80;nan;100326.56;5114916;28;20073;-49
2023/07/01 07:58:01;;;;;;;5.85;1.63;;;;;;;41.87;nan;100326.53;5111672;28;20051;-48
2023/07/01 08:00:28;;;;;;;6.07;1.80;;;;;;;44.52;nan;100319.72;5113756;28;20052;-48
2023/07/01 08:02:55;;;;;;;2.33;1.55;;;;;;;43.44;nan;100324.31;5111261;28;20055;-49
2023/07/01 08:05:23;;;;;;;3.17;1.30;;;;;;;42.12;nan;100318.00;5107184;28;20475;-48
2023/07/01 08:07:50;;;;;;;4.30;1.80;;;;;;;41.89;nan;100318.75;5114684;28;20051;-49
2023/07/01 08:10:17;;;;;;;3.38;1.92;;;;;;;42.27;nan;100313.44;5110936;28;20458;-49
2023/07/01 08:12:44;;;;;;;5.43;1.35;;;;;;;42.60;nan;100313.66;5114321;28;20072;-49
2023/07/01 08:15:10;;;;;;;3.42;1.52;;;;;;;39.31;nan;100323.16;5109304;28;20108;-48
2023/07/01 08:17:38;;;;;;;3.72;1.58;;;;;;;41.94;nan;100315.94;5114288;28;20051;-48
2023/07/01 08:20:05;;;;;;;4.28;1.25;;;;;;;40.88;nan;100306.84;5102969;28;20078;-49
2023/07/01 08:22:32;;;;;;;4.18;1.35;;;;;;;43.45;nan;100298.97;5114832;28;20047;-48
2023/07/01 08:24:58;;;;;;;1.83;1.27;;;;;;;40.65;nan;100307.47;5111789;28;20055;-48
2023/07/01 08:27:25;;;;;;;4.40;1.58;;;;;;;40.67;nan;100306.03;5112913;28;20070;-49
2023/07/01 08:29:51;;;;;;;4.18;1.83;;;;;;;42.56;nan;100301.50;5113755;28;20067;-49
2023/07/01 08:32:18;;;;;;;4.63;1.40;;;;;;;43.05;nan;100300.34;5111657;28;20060;-48
2023/07/01 08:34:45;;;;;;;3.42;1.63;;;;;;;40.12;nan;100288.44;5112858;28;20516;-48
2023/07/01 08:37:11;;;;;;;3.90;1.58;;;;;;;41.87;nan;100285.75;5100558;28;20070;-48
2023/07/01 08:39:38;;;;;;;6.07;1.85;;;;;;;42.05;nan;100278.66;5114457;28;20051;-48
2023/07/01 08:42:09;;;;;;;4.95;1.70;;;;;;;40.49;nan;100290.88;5110710;28;20058;-49
2023/07/01 08:44:37;;;;;;;;;;;;;;;41.87;nan;100277.44;5112369;28;20051;-50
2023/07/01 08:47:04;;;;;;;3.90;1.73;;;;;;;44.12;nan;100274.75;5113661;28;19919;-49
2023/07/01 08:49:32;;;;;;;4.32;1.95;;;;;;;41.17;nan;100280.38;5108177;28;20055;-50
2023/07/01 08:52:08;;;;;;;6.32;1.92;;;;;;;42.28;nan;100276.25;5110226;28;20088;-49
2023/07/01 08:54:36;;;;;;;5.30;2.10;;;;;;;42.87;nan;100271.38;5111894;27;20048;-50
2023/07/01 08:57:03;;;;;;;5.47;2.17;;;;;;;42.14;nan;100279.69;5134630;27;20051;-50
2023/07/01 08:59:30;;;;;;;5.38;2.25;;;;;;;41.20;nan;100268.72;5117683;27;20044;-50
2023/07/01 09:02:01;;;;;;;3.50;2.28;;;;;;;40.84;nan;100260.63;5113316;28;20052;-50
2023/07/01 09:04:28;;;;;;;;;;;;;;;40.94;nan;100255.00;5110844;28;20400;-49
2023/07/01 09:06:55;;;;;;;3.60;2.10;;;;;;;42.60;nan;100260.91;5102255;28;19926;-48
2023/07/01 09:09:21;;;;;;;3.10;1.77;;;;;;;41.34;nan;100257.84;5106977;28;20071;-48
2023/07/01 09:11:48;;;;;;;3.75;1.50;;;;;;;41.68;nan;100251.50;5108376;28;20051;-49
2023/07/01 09:14:14;;;;;;;5.68;1.67;;;;;;;42.91;nan;100256.59;5109215;27;20375;-49
2023/07/01 09:16:41;;;;;;;3.70;1.88;;;;;;;44.32;nan;100252.13;5106589;28;20059;-49
2023/07/01 09:19:22;;;;;;;5.82;1.80;;;;;;;45.32;nan;100247.78;5121544;27;20402;-48
2023/07/01 09:21:48;;;;;;;3.67;1.65;;;;;;;46.20;nan;100242.78;5114381;27;20166;-48
2023/07/01 09:24:15;;;;;;;15.65;2.65;;;;;;;43.47;nan;100247.75;5113204;27;20444;-48
2023/07/01 09:26:42;;;;;;;3.55;1.45;;;;;;;40.91;nan;100250.03;5104621;28;20067;-49
2023/07/01 09:29:12;;;;;;;9.23;2.58;;;;;;;46.10;nan;100241.91;5094078;28;20048;-48
2023/07/01 09:31:51;;;;;;;7.22;1.98;;;;;;;41.10;nan;100237.19;5093193;28;20158;-49
2023/07/01 09:34:18;;;;;;;5.75;1.73;;;;;;;42.18;nan;100225.25;5097715;28;20044;-49
2023/07/01 09:36:45;;;;;;;5.55;1.92;;;;;;;43.63;nan;100229.69;5112837;27;20048;-49
2023/07/01 09:39:12;;;;;;;9.18;1.88;;;;;;;39.55;nan;100219.31;5109591;28;20416;-49
2023/07/01 09:41:38;;;;;;;4.75;1.67;;;;;;;42.41;nan;100214.44;5101454;28;20055;-49
2023/07/01 09:44:23;;;;;;;5.35;1.85;;;;;;;42.54;nan;100219.31;5100459;28;20453;-49
2023/07/01 09:46:50;;;;;;;7.93;2.05;;;;;;;41.77;nan;100211.78;5113387;28;20058;-48
2023/07/01 09:49:18;;;;;;;7.55;2.20;;;;;;;39.48;nan;100213.19;5099055;28;20059;-48
2023/07/01 09:51:51;;;;;;;4.25;1.85;;;;;;;41.85;nan;100195.59;5112984;28;20078;-48
2023/07/01 09:54:38;;;;;;;4.13;2.40;;;;;;;45.60;nan;100211.41;5107297;28;20059;-49
2023/07/01 09:57:05;;;;;;;3.15;1.58;;;;;;;43.99;nan;100201.25;5103169;28;20601;-49
2023/07/01 09:59:31;;;;;;;4.78;1.50;;;;;;;43.56;nan;100202.25;5106457;28;20056;-49
2023/07/01 10:02:01;;;;;;;4.05;1.85;;;;;;;43.72;nan;100196.44;5100038;28;20059;-49
2023/07/01 10:04:29;;;;;;;7.47;2.10;;;;;;;42.72;nan;100192.69;5108885;28;20039;-50
2023/07/01 10:06:57;;;;;;;4.57;2.15;;;;;;;42.22;nan;100185.81;5101718;28;20054;-49
2023/07/01 10:09:26;;;;;;;3.95;1.52;;;;;;;44.83;nan;100182.56;5110366;28;20059;-49
2023/07/01 10:11:55;;;;;;;3.40;1.75;;;;;;;40.83;nan;100186.91;5108812;28;20096;-50
2023/07/01 10:14:25;;;;;;;7.05;2.08;;;;;;;41.53;nan;100183.94;5112661;28;20035;-49
2023/07/01 10:16:51;;;;;;;5.45;1.85;;;;;;;42.20;nan;100185.28;5106618;28;20106;-48
2023/07/01 10:19:29;;;;;;;5.18;1.98;;;;;;;40.82;nan;100193.53;5112609;28;20143;-49
2023/07/01 10:22:25;;;;;;;8.18;2.08;;;;;;;44.82;nan;100166.97;5109385;28;20065;-49
2023/07/01 10:25:06;;;;;;;5.18;1.83;;;;;;;45.33;nan;100167.72;5098890;28;20047;-48
2023/07/01 10:27:42;;;;;;;5.90;2.28;;;;;;;44.87;nan;100164.06;5110563;28;20055;-50
2023/07/01 10:30:12;;;;;;;3.30;2.35;;;;;;;43.58;nan;100157.47;5103579;28;20048;-49
2023/07/01 10:32:40;;;;;;;6.05;2.03;;;;;;;44.97;nan;100147.13;5112556;28;20058;-49
2023/07/01 10:35:09;;;;;;;5.55;2.60;;;;;;;45.11;nan;100140.69;5108381;28;20513;-49
2023/07/01 10:37:35;;;;;;;7.55;2.00;;;;;;;45.84;nan;100140.47;5111992;28;20063;-49
2023/07/01 10:40:23;;;;;;;3.42;1.90;;;;;;;45.49;nan;100145.88;5102989;28;20123;-49
2023/07/01 10:42:49;;;;;;;11.52;2.63;;;;;;;46.30;nan;100139.16;5095037;28;20056;-49
2023/07/01 10:45:16;;;;;;;4.88;1.75;;;;;;;42.55;nan;100136.81;5108261;28;20452;-49
2023/07/01 10:47:48;;;;;;;6.65;1.73;;;;;;;42.95;nan;100128.16;5102561;28;20051;-49
2023/07/01 10:50:15;;;;;;;3.53;2.25;;;;;;;46.38;nan;100137.53;5111425;28;20115;-48
2023/07/01 10:53:02;;;;;;;3.95;1.73;;;;;;;44.90;nan;100113.28;5107461;28;20048;-49
2023/07/01 10:55:49;;;;;;;4.88;1.77;;;;;;;47.74;nan;100114.94;5111423;28;20053;-49
2023/07/01 10:58:21;;;;;;;7.65;1.92;;;;;;;46.39;nan;100117.66;5095398;28;20052;-49
2023/07/01 11:00:57;;;;;;;6.63;1.88;;;;;;;48.07;nan;100100.28;5106508;28;20059;-49
2023/07/01 11:03:42;;;;;;;7.35;2.70;;;;;;;45.79;nan;100099.56;5107627;28;20055;-49
2023/07/01 11:06:10;;;;;;;5.22;1.90;;;;;;;48.36;nan;100106.97;5111157;28;20051;-49
2023/07/01 11:08:51;;;;;;;4.78;1.80;;;;;;;46.78;nan;100109.47;5107733;28;20480;-49
2023/07/01 11:11:24;;;;;;;8.88;1.70;;;;;;;50.36;nan;100095.56;5110494;28;20063;-49
2023/07/01 11:14:02;;;;;;;4.18;2.00;;;;;;;49.92;nan;100086.97;5109047;28;20425;-49
2023/07/01 11:16:30;;;;;;;3.28;1.25;;;;;;;47.87;nan;100090.63;5108043;28;20051;-49
2023/07/01 11:19:00;;;;;;;10.80;2.05;;;;;;;45.58;nan;100088.13;5111309;28;20116;-49
2023/07/01 11:21:28;;;;;;;3.15;1.85;;;;;;;45.71;nan;100087.22;5107611;28;20047;-50
2023/07/01 11:24:03;;;;;;;8.18;1.63;;;;;;;48.97;nan;100082.09;5111342;28;20059;-50
2023/07/01 11:26:38;;;;;;;6.25;2.25;;;;;;;50.65;nan;100073.94;5107692;28;20052;-50
2023/07/01 11:29:10;;;;;;;7.40;1.98;;;;;;;48.02;nan;100080.81;5111443;28;20406;-49
2023/07/01 11:31:37;;;;;;;6.03;2.05;;;;;;;48.01;nan;100080.00;5108510;28;20047;-50
2023/07/01 11:34:04;;;;;;;3.50;1.83;;;;;;;45.65;nan;100068.97;5110851;28;20135;-50
2023/07/01 11:36:36;;;;;;;6.50;1.65;;;;;;;44.61;nan;100056.00;5110455;28;20052;-49
2023/07/01 11:39:07;;;;;;;4.35;1.70;;;;;;;44.79;nan;100062.53;5106644;28;20107;-49
2023/07/01 11:41:35;;;;;;;4.80;2.00;;;;;;;43.52;nan;100070.53;5111555;28;20477;-49
2023/07/01 11:44:03;;;;;;;7.00;1.85;;;;;;;43.31;nan;100060.84;5107361;28;20055;-49